createdAt,value
2022-12-16T00:00:23.619Z,100243.53
2022-12-16T00:02:52.836Z,100203.44
2022-12-16T00:05:22.196Z,100218.72
2022-12-16T00:07:50.532Z,100232.34
2022-12-16T00:10:18.774Z,100229.41
2022-12-16T00:12:48.570Z,100231.66
2022-12-16T00:15:17.042Z,100222.47
2022-12-16T00:17:45.277Z,100231.81
2022-12-16T00:20:14.121Z,100179.19
2022-12-16T00:22:42.407Z,100220.34
2022-12-16T00:25:11.027Z,100210.25
2022-12-16T00:27:39.235Z,100183.06
2022-12-16T00:30:11.159Z,100204.84
2022-12-16T00:32:39.618Z,100206.63
2022-12-16T00:35:08.397Z,100210.84
2022-12-16T00:37:36.650Z,100199.53
2022-12-16T00:40:06.091Z,100199.69
2022-12-16T00:42:34.336Z,100204.53
2022-12-16T00:45:02.563Z,100209.75
2022-12-16T00:47:32.255Z,100209.63
2022-12-16T00:50:00.469Z,100217.31
2022-12-16T00:52:29.088Z,100223.00
2022-12-16T00:54:57.418Z,100218.28
2022-12-16T00:57:26.018Z,100172.66
2022-12-16T00:59:54.478Z,100215.16
2022-12-16T01:02:23.623Z,100218.84
2022-12-16T01:04:53.652Z,100215.59
2022-12-16T01:07:23.078Z,100202.97
2022-12-16T01:09:51.333Z,100184.09
2022-12-16T01:12:20.077Z,100205.97
2022-12-16T01:14:48.331Z,100176.38
2022-12-16T01:17:16.617Z,100202.00
2022-12-16T01:19:44.826Z,100204.75
2022-12-16T01:22:15.118Z,100202.44
2022-12-16T01:24:45.629Z,100203.00
2022-12-16T01:27:14.477Z,100191.72
2022-12-16T01:29:43.211Z,100189.34
2022-12-16T01:32:14.689Z,100196.94
2022-12-16T01:34:47.382Z,100190.69
2022-12-16T01:37:24.005Z,100192.78
2022-12-16T01:39:52.510Z,100197.38
2022-12-16T01:42:23.960Z,100191.94
2022-12-16T01:44:55.163Z,100197.41
2022-12-16T01:47:29.171Z,100174.75
2022-12-16T01:50:03.990Z,100197.59
2022-12-16T01:52:38.913Z,100202.88
2022-12-16T01:55:16.965Z,100206.72
2022-12-16T01:57:51.465Z,100205.25
2022-12-16T02:00:23.756Z,100100.81
2022-12-16T02:02:55.067Z,100200.84
2022-12-16T02:05:24.558Z,100197.78
2022-12-16T02:08:02.204Z,100198.91
2022-12-16T02:10:48.836Z,100179.97
2022-12-16T02:13:27.533Z,100140.63
2022-12-16T02:16:06.764Z,100180.63
2022-12-16T02:18:50.963Z,100196.81
2022-12-16T02:21:40.266Z,100154.97
2022-12-16T02:24:53.657Z,100095.06
2022-12-16T02:28:00.748Z,100197.56
2022-12-16T02:31:16.792Z,100189.97
2022-12-16T02:34:03.320Z,100188.28
2022-12-16T02:36:56.520Z,100173.16
2022-12-16T02:39:36.511Z,100191.59
2022-12-16T02:42:14.482Z,100188.97
2022-12-16T02:44:56.101Z,100187.63
2022-12-16T02:47:26.042Z,100188.56
2022-12-16T02:49:56.157Z,100179.97
2022-12-16T02:52:28.291Z,100176.63
2022-12-16T02:55:02.563Z,100147.66
2022-12-16T02:58:03.749Z,100145.97
2022-12-16T03:00:45.881Z,100172.63
2022-12-16T03:03:24.321Z,100174.31
2022-12-16T03:05:56.447Z,100167.69
2022-12-16T03:08:34.017Z,100170.34
2022-12-16T03:11:06.862Z,100160.72
2022-12-16T03:13:44.162Z,100165.94
2022-12-16T03:16:17.452Z,100158.09
2022-12-16T03:19:01.602Z,100161.72
2022-12-16T03:21:39.512Z,100106.75
2022-12-16T03:24:13.874Z,100159.16
2022-12-16T03:26:53.863Z,100156.69
2022-12-16T03:29:37.857Z,100157.88
2022-12-16T03:32:13.734Z,100146.56
2022-12-16T03:34:51.927Z,100163.72
2022-12-16T03:37:25.813Z,100141.00
2022-12-16T03:39:59.702Z,100151.28
2022-12-16T03:42:28.660Z,100121.47
2022-12-16T03:44:58.171Z,100160.28
2022-12-16T03:47:29.793Z,100156.28
2022-12-16T03:49:59.513Z,100157.34
2022-12-16T03:52:27.717Z,100157.34
2022-12-16T03:54:56.012Z,100157.28
2022-12-16T03:57:24.210Z,100153.88
2022-12-16T03:59:52.442Z,100157.06
2022-12-16T04:02:20.873Z,100155.13
2022-12-16T04:04:49.140Z,100167.25
2022-12-16T04:07:21.477Z,100147.28
2022-12-16T04:09:51.245Z,100169.56
2022-12-16T04:12:38.058Z,100168.03
2022-12-16T04:15:25.360Z,100128.31
2022-12-16T04:18:11.028Z,100134.69
2022-12-16T04:21:02.993Z,100171.69
2022-12-16T04:23:52.644Z,100161.44
2022-12-16T04:26:21.863Z,100170.50
2022-12-16T04:28:50.064Z,100168.13
2022-12-16T04:31:21.356Z,100170.94
2022-12-16T04:34:07.444Z,100176.03
2022-12-16T04:36:53.051Z,100086.56
2022-12-16T04:39:40.360Z,100172.31
2022-12-16T04:42:26.299Z,100140.47
2022-12-16T04:45:12.136Z,100180.75
2022-12-16T04:47:58.095Z,100117.56
2022-12-16T04:50:43.778Z,100184.25
2022-12-16T04:53:25.954Z,100193.56
2022-12-16T04:56:18.552Z,100167.38
2022-12-16T04:59:04.144Z,100195.19
2022-12-16T05:01:49.795Z,100204.88
2022-12-16T05:04:35.919Z,100190.13
2022-12-16T05:07:21.772Z,100144.13
2022-12-16T05:10:07.884Z,100153.28
2022-12-16T05:12:55.097Z,100216.16
2022-12-16T05:15:41.214Z,100082.84
2022-12-16T05:18:29.068Z,100217.22
2022-12-16T05:21:16.457Z,100225.03
2022-12-16T05:24:02.292Z,100226.38
2022-12-16T05:26:48.162Z,100230.84
2022-12-16T05:29:35.728Z,100239.34
2022-12-16T05:32:21.553Z,100249.06
2022-12-16T05:35:18.807Z,100207.72
2022-12-16T05:38:04.785Z,100247.97
2022-12-16T05:40:50.636Z,100221.31
2022-12-16T05:43:36.933Z,100220.16
2022-12-16T05:46:27.116Z,100252.41
2022-12-16T05:49:18.375Z,100176.38
2022-12-16T05:52:04.070Z,100258.84
2022-12-16T05:54:50.076Z,100258.97
2022-12-16T05:57:36.005Z,100263.50
2022-12-16T06:00:28.101Z,100260.94
2022-12-16T06:03:15.666Z,100267.56
2022-12-16T06:06:01.719Z,100169.97
2022-12-16T06:08:47.498Z,100269.72
2022-12-16T06:11:33.630Z,100182.97
2022-12-16T06:14:19.585Z,100261.09
2022-12-16T06:17:02.056Z,100267.22
2022-12-16T06:19:49.212Z,100266.38
2022-12-16T06:22:35.482Z,100261.16
2022-12-16T06:25:21.949Z,100256.91
2022-12-16T06:28:10.637Z,100200.66
2022-12-16T06:30:56.907Z,100216.09
2022-12-16T06:33:43.079Z,100260.94
2022-12-16T06:36:30.990Z,100225.78
2022-12-16T06:39:16.820Z,100261.94
2022-12-16T06:42:02.875Z,100264.25
2022-12-16T06:44:49.234Z,100264.19
2022-12-16T06:47:35.207Z,100270.16
2022-12-16T06:50:20.944Z,100273.63
2022-12-16T06:53:08.135Z,100271.97
2022-12-16T06:55:54.227Z,100278.09
2022-12-16T06:58:42.346Z,100289.28
2022-12-16T07:01:28.791Z,100256.84
2022-12-16T07:04:14.738Z,100287.56
2022-12-16T07:07:01.103Z,100291.97
2022-12-16T07:09:48.672Z,100294.59
2022-12-16T07:12:34.455Z,100274.28
2022-12-16T07:15:20.408Z,100303.47
2022-12-16T07:18:06.382Z,100307.97
2022-12-16T07:20:52.038Z,100257.91
2022-12-16T07:23:43.278Z,100301.00
2022-12-16T07:26:30.430Z,100324.03
2022-12-16T07:29:16.437Z,100321.72
2022-12-16T07:32:02.463Z,100329.75
2022-12-16T07:34:50.273Z,100334.84
2022-12-16T07:37:36.756Z,100342.94
2022-12-16T07:40:23.791Z,100351.78
2022-12-16T07:43:11.478Z,100355.34
2022-12-16T07:45:57.523Z,100363.25
2022-12-16T07:48:44.040Z,100278.31
2022-12-16T07:51:35.235Z,100373.56
2022-12-16T07:54:21.491Z,100377.31
2022-12-16T07:57:07.419Z,100380.56
2022-12-16T07:59:54.504Z,100379.84
2022-12-16T08:02:40.994Z,100377.31
2022-12-16T08:05:27.295Z,100384.97
2022-12-16T08:08:13.386Z,100336.03
2022-12-16T08:11:00.020Z,100385.00
2022-12-16T08:13:45.905Z,100382.53
2022-12-16T08:16:33.133Z,100393.38
2022-12-16T08:19:19.250Z,100372.00
2022-12-16T08:22:05.218Z,100389.03
2022-12-16T08:27:57.409Z,100398.28
2022-12-16T08:30:43.283Z,100394.03
2022-12-16T08:33:30.489Z,100397.72
2022-12-16T08:36:17.630Z,100344.63
2022-12-16T08:39:03.505Z,100403.47
2022-12-16T08:41:49.539Z,100406.19
2022-12-16T08:44:35.428Z,100409.94
2022-12-16T08:47:21.619Z,100410.47
2022-12-16T08:50:09.164Z,100399.56
2022-12-16T08:52:54.942Z,100352.88
2022-12-16T08:55:41.107Z,100328.44
2022-12-16T08:58:27.362Z,100420.66
2022-12-16T09:01:13.213Z,100425.47
2022-12-16T09:04:04.522Z,100415.88
2022-12-16T09:06:51.568Z,100419.94
2022-12-16T09:09:37.605Z,100427.44
2022-12-16T09:12:23.987Z,100423.19
2022-12-16T09:15:09.941Z,100426.28
2022-12-16T09:17:55.915Z,100426.16
2022-12-16T09:20:42.008Z,100425.13
2022-12-16T09:23:29.798Z,100404.50
2022-12-16T09:26:16.150Z,100378.03
2022-12-16T09:29:01.945Z,100420.91
2022-12-16T09:31:53.088Z,100425.66
2022-12-16T09:34:38.961Z,100430.00
2022-12-16T09:37:24.676Z,100443.88
2022-12-16T09:40:12.108Z,100375.19
2022-12-16T09:43:09.659Z,100432.09
2022-12-16T09:46:07.889Z,100435.53
2022-12-16T09:49:06.875Z,100397.19
2022-12-16T09:51:55.886Z,100430.28
2022-12-16T09:54:48.481Z,100433.88
2022-12-16T09:57:36.870Z,100441.84
2022-12-16T10:00:26.893Z,100402.41
2022-12-16T10:03:17.702Z,100447.50
2022-12-16T10:06:17.194Z,100448.44
2022-12-16T10:09:16.240Z,100448.44
2022-12-16T10:12:13.347Z,100445.44
2022-12-16T10:15:11.740Z,100447.72
2022-12-16T10:18:04.756Z,100422.88
2022-12-16T10:21:01.659Z,100454.44
2022-12-16T10:23:58.157Z,100417.78
2022-12-16T10:26:54.739Z,100469.06
2022-12-16T10:29:48.745Z,100466.59
2022-12-16T10:32:43.572Z,100469.78
2022-12-16T10:35:41.163Z,100469.63
2022-12-16T10:38:50.802Z,100395.25
2022-12-16T10:41:38.206Z,100460.75
2022-12-16T10:44:36.067Z,100452.59
2022-12-16T10:47:22.282Z,100470.22
2022-12-16T10:50:13.201Z,100467.16
2022-12-16T10:53:19.589Z,100458.59
2022-12-16T10:56:25.247Z,100460.38
2022-12-16T10:59:30.025Z,100470.63
2022-12-16T11:02:18.422Z,100467.66
2022-12-16T11:05:20.576Z,100433.47
2022-12-16T11:08:12.163Z,100465.47
2022-12-16T11:11:00.412Z,100458.59
2022-12-16T11:13:49.564Z,100419.94
2022-12-16T11:16:42.303Z,100460.94
2022-12-16T11:19:40.408Z,100451.88
2022-12-16T11:22:33.181Z,100450.56
2022-12-16T11:25:35.403Z,100459.28
2022-12-16T11:28:38.136Z,100458.78
2022-12-16T11:31:31.391Z,100461.69
2022-12-16T11:34:21.413Z,100461.53
2022-12-16T11:37:11.141Z,100460.66
2022-12-16T11:39:59.896Z,100468.59
2022-12-16T11:42:52.282Z,100469.66
2022-12-16T11:45:40.790Z,100446.72
2022-12-16T11:48:40.537Z,100488.28
2022-12-16T11:51:34.676Z,100484.00
2022-12-16T11:54:31.663Z,100339.41
2022-12-16T11:57:21.729Z,100487.97
2022-12-16T12:00:18.913Z,100481.16
2022-12-16T12:03:20.825Z,100479.91
2022-12-16T12:06:26.198Z,100490.13
2022-12-16T12:09:21.650Z,100493.66
2022-12-16T12:12:15.909Z,100490.28
2022-12-16T12:15:12.320Z,100490.22
2022-12-16T12:18:10.113Z,100459.09
2022-12-16T12:21:08.986Z,100427.09
2022-12-16T12:24:11.480Z,100495.84
2022-12-16T12:27:09.569Z,100469.44
2022-12-16T12:30:17.086Z,100508.59
2022-12-16T12:33:18.305Z,100489.22
2022-12-16T12:36:20.465Z,100486.97
2022-12-16T12:39:30.003Z,100366.22
2022-12-16T12:42:48.934Z,100419.19
2022-12-16T12:46:06.261Z,100446.81
2022-12-16T12:49:04.423Z,100518.91
2022-12-16T13:02:48.645Z,100547.75
2022-12-16T13:05:36.151Z,100545.09
2022-12-16T13:09:01.744Z,100547.47
2022-12-16T13:11:47.921Z,100546.78
2022-12-16T13:15:13.353Z,100518.50
2022-12-16T13:18:47.494Z,100543.66
2022-12-16T13:22:03.463Z,100556.72
2022-12-16T13:25:06.875Z,100565.63
2022-12-16T13:28:14.556Z,100560.63
2022-12-16T13:31:25.328Z,100545.88
2022-12-16T13:34:18.104Z,100557.53
2022-12-16T13:37:12.561Z,100576.13
2022-12-16T13:40:02.600Z,100573.47
2022-12-16T13:43:11.184Z,100578.84
2022-12-16T13:46:00.758Z,100554.56
2022-12-16T13:48:55.290Z,100553.09
2022-12-16T13:52:32.906Z,100582.03
2022-12-16T13:55:34.640Z,100590.06
2022-12-16T13:58:40.357Z,100570.75
2022-12-16T14:01:35.068Z,100604.22
2022-12-16T14:04:22.146Z,100605.28
2022-12-16T14:07:09.501Z,100524.50
2022-12-16T14:09:59.923Z,100591.47
2022-12-16T14:13:11.797Z,100611.78
2022-12-16T14:16:14.842Z,100607.50
2022-12-16T14:19:24.523Z,100602.00
2022-12-16T14:22:18.828Z,100629.41
2022-12-16T14:25:05.409Z,100637.16
2022-12-16T14:27:53.894Z,100615.84
2022-12-16T14:30:44.580Z,100641.72
2022-12-16T14:33:42.145Z,100651.13
2022-12-16T14:36:49.293Z,100657.09
2022-12-16T14:39:42.069Z,100613.06
2022-12-16T14:42:41.297Z,100640.22
2022-12-16T14:45:52.558Z,100669.19
2022-12-16T14:48:49.889Z,100676.72
2022-12-16T14:51:43.719Z,100676.81
2022-12-16T14:54:42.743Z,100681.00
2022-12-16T14:57:34.894Z,100686.09
2022-12-16T15:00:34.430Z,100672.66
2022-12-16T15:03:33.235Z,100692.25
2022-12-16T15:06:23.658Z,100681.47
2022-12-16T15:09:15.291Z,100605.63
2022-12-16T15:12:03.100Z,100650.06
2022-12-16T15:14:53.997Z,100660.34
2022-12-16T15:17:43.657Z,100704.16
2022-12-16T15:20:40.726Z,100573.03
2022-12-16T15:23:37.691Z,100676.72
2022-12-16T15:26:24.806Z,100674.75
2022-12-16T15:29:11.109Z,100720.91
2022-12-16T15:32:03.194Z,100724.41
2022-12-16T15:35:06.663Z,100724.41
2022-12-16T15:38:04.209Z,100726.16
2022-12-16T15:40:57.486Z,100706.94
2022-12-16T15:43:47.938Z,100731.63
2022-12-16T15:46:39.992Z,100675.94
2022-12-16T15:49:38.989Z,100728.56
2022-12-16T15:52:53.620Z,100727.03
2022-12-16T15:55:47.948Z,100754.19
2022-12-16T15:58:43.451Z,100671.69
2022-12-16T16:01:32.440Z,100750.81
2022-12-16T16:04:18.887Z,100749.97
2022-12-16T16:07:08.741Z,100716.13
2022-12-16T16:09:56.319Z,100763.84
2022-12-16T16:12:44.472Z,100719.00
2022-12-16T16:15:32.756Z,100766.56
2022-12-16T16:18:22.831Z,100764.72
2022-12-16T16:21:10.025Z,100744.03
2022-12-16T16:23:56.413Z,100772.31
2022-12-16T16:26:47.032Z,100771.66
2022-12-16T16:29:34.057Z,100774.38
2022-12-16T16:32:23.538Z,100771.78
2022-12-16T16:35:09.456Z,100752.78
2022-12-16T16:37:55.507Z,100773.00
2022-12-16T16:40:50.793Z,100778.06
2022-12-16T16:43:37.665Z,100784.06
2022-12-16T16:46:45.917Z,100739.31
2022-12-16T16:49:39.017Z,100783.09
2022-12-16T16:52:29.872Z,100789.78
2022-12-16T16:55:15.879Z,100769.59
2022-12-16T16:58:02.277Z,100771.38
2022-12-16T17:00:48.479Z,100777.06
2022-12-16T17:03:37.891Z,100789.47
2022-12-16T17:06:24.857Z,100779.63
2022-12-16T17:09:10.828Z,100743.91
2022-12-16T17:11:58.012Z,100805.41
2022-12-16T17:14:44.070Z,100783.19
2022-12-16T17:17:29.679Z,100810.81
2022-12-16T17:20:16.864Z,100815.25
2022-12-16T17:23:02.747Z,100602.84
2022-12-16T17:25:48.692Z,100817.19
2022-12-16T17:28:34.969Z,100804.97
2022-12-16T17:31:21.327Z,100738.06
2022-12-16T17:34:07.681Z,100787.47
2022-12-16T17:36:54.880Z,100814.06
2022-12-16T17:39:41.037Z,100825.97
2022-12-16T17:42:27.083Z,100773.88
2022-12-16T17:45:13.339Z,100806.59
2022-12-16T17:48:01.871Z,100836.38
2022-12-16T17:50:48.274Z,100757.78
2022-12-16T17:53:35.998Z,100844.94
2022-12-16T17:56:23.203Z,100838.72
2022-12-16T17:59:11.043Z,100825.53
2022-12-16T18:01:57.441Z,100832.69
2022-12-16T18:04:43.575Z,100857.06
2022-12-16T18:07:29.646Z,100876.22
2022-12-16T18:10:18.280Z,100880.00
2022-12-16T18:13:04.399Z,100835.75
2022-12-16T18:15:56.187Z,100869.09
2022-12-16T18:18:46.157Z,100866.38
2022-12-16T18:21:33.368Z,100837.97
2022-12-16T18:24:24.793Z,100859.84
2022-12-16T18:27:12.576Z,100905.88
2022-12-16T18:29:58.372Z,100856.06
2022-12-16T18:32:44.499Z,100859.47
2022-12-16T18:35:30.424Z,100881.19
2022-12-16T18:38:16.789Z,100887.94
2022-12-16T18:41:03.018Z,100876.31
2022-12-16T18:43:50.628Z,100900.06
2022-12-16T18:46:36.547Z,100682.88
2022-12-16T18:49:22.928Z,100829.63
2022-12-16T18:52:09.673Z,100911.59
2022-12-16T18:54:55.601Z,100914.31
2022-12-16T18:57:41.702Z,100915.38
2022-12-16T19:00:30.491Z,100912.94
2022-12-16T19:03:16.829Z,100922.19
2022-12-16T19:06:03.334Z,100894.88
2022-12-16T19:08:49.868Z,100918.03
2022-12-16T19:11:35.977Z,100908.34
2022-12-16T19:14:22.117Z,100902.78
2022-12-16T19:17:09.769Z,100878.53
2022-12-16T19:19:57.529Z,100920.44
2022-12-16T19:22:43.833Z,100784.09
2022-12-16T19:25:29.869Z,100814.66
2022-12-16T19:28:15.999Z,100942.75
2022-12-16T19:31:02.213Z,100942.31
2022-12-16T19:33:49.681Z,100914.56
2022-12-16T19:36:35.680Z,100901.88
2022-12-16T19:39:21.946Z,100915.19
2022-12-16T19:42:07.944Z,100799.66
2022-12-16T19:44:56.047Z,100956.78
2022-12-16T19:47:42.306Z,100977.53
2022-12-16T19:50:29.661Z,100950.28
2022-12-16T19:53:15.567Z,100984.53
2022-12-16T19:56:01.709Z,100946.97
2022-12-16T19:58:47.731Z,100917.56
2022-12-16T20:01:33.651Z,100933.22
2022-12-16T20:04:19.606Z,100955.34
2022-12-16T20:07:09.410Z,100936.06
2022-12-16T20:09:56.185Z,100977.84
2022-12-16T20:12:42.354Z,100968.91
2022-12-16T20:15:28.808Z,100887.47
2022-12-16T20:18:14.819Z,100967.28
2022-12-16T20:21:00.921Z,100966.66
2022-12-16T20:23:48.675Z,100981.03
2022-12-16T20:26:34.682Z,100989.19
2022-12-16T20:29:20.749Z,100987.16
2022-12-16T20:32:06.785Z,100998.56
2022-12-16T20:34:52.806Z,100965.69
2022-12-16T20:37:39.725Z,101012.22
2022-12-16T20:40:28.811Z,100997.66
2022-12-16T20:43:14.983Z,100980.31
2022-12-16T20:46:01.106Z,101022.44
2022-12-16T20:48:47.146Z,100963.50
2022-12-16T20:51:32.851Z,101026.19
2022-12-16T20:54:18.533Z,101018.03
2022-12-16T20:57:09.550Z,100951.63
2022-12-16T20:59:58.558Z,101025.94
2022-12-16T21:02:44.674Z,100977.38
2022-12-16T21:05:45.324Z,101000.91
2022-12-16T21:08:30.941Z,101024.72
2022-12-16T21:11:16.986Z,101041.38
2022-12-16T21:14:07.074Z,101044.91
2022-12-16T21:16:53.619Z,100990.16
2022-12-16T21:19:43.106Z,101047.81
2022-12-16T21:22:29.585Z,101023.38
2022-12-16T21:25:16.736Z,101054.38
2022-12-16T21:28:05.970Z,101059.56
2022-12-16T21:30:53.723Z,101065.63
2022-12-16T21:33:40.216Z,101067.25
2022-12-16T21:36:28.072Z,101069.81
2022-12-16T21:39:13.873Z,101075.81
2022-12-16T21:42:00.146Z,101053.59
2022-12-16T21:44:46.948Z,101030.31
2022-12-16T21:47:34.451Z,101063.19
2022-12-16T21:50:21.567Z,101082.50
2022-12-16T21:53:08.528Z,101082.63
2022-12-16T21:55:55.898Z,101072.97
2022-12-16T21:58:42.757Z,101094.13
2022-12-16T22:01:28.909Z,101079.09
2022-12-16T22:04:16.144Z,101092.75
2022-12-16T22:07:02.525Z,101096.75
2022-12-16T22:09:48.810Z,101099.25
2022-12-16T22:12:35.282Z,101107.06
2022-12-16T22:15:21.451Z,101102.56
2022-12-16T22:18:08.111Z,101105.16
2022-12-16T22:20:55.062Z,101094.75
2022-12-16T22:23:48.364Z,101107.00
2022-12-16T22:26:34.519Z,101111.22
2022-12-16T22:29:20.652Z,101104.09
2022-12-16T22:32:06.695Z,100989.09
2022-12-16T22:34:57.884Z,101086.47
2022-12-16T22:37:45.320Z,101115.91
2022-12-16T22:40:31.363Z,101114.19
2022-12-16T22:43:17.324Z,101114.19
2022-12-16T22:46:03.413Z,101112.44
2022-12-16T22:48:51.293Z,101092.16
2022-12-16T22:51:37.920Z,101100.88
2022-12-16T22:54:25.470Z,101111.75
2022-12-16T22:57:11.575Z,100946.97
2022-12-16T22:59:57.368Z,101066.44
2022-12-16T23:02:43.541Z,101122.72
2022-12-16T23:05:29.852Z,101122.09
2022-12-16T23:08:15.852Z,101138.38
2022-12-16T23:11:03.012Z,101134.91
2022-12-16T23:13:49.053Z,101141.06
2022-12-16T23:16:49.585Z,101053.50
2022-12-16T23:19:37.793Z,101097.81
2022-12-16T23:22:23.673Z,101126.09
2022-12-16T23:25:09.844Z,101144.22
2022-12-16T23:27:57.054Z,101132.97
2022-12-16T23:30:42.951Z,101117.13
2022-12-16T23:33:28.847Z,101127.53
2022-12-16T23:36:15.080Z,101015.97
2022-12-16T23:39:01.053Z,101147.28
2022-12-16T23:41:47.088Z,101152.69
2022-12-16T23:44:34.592Z,101117.41
2022-12-16T23:47:20.526Z,101163.22
2022-12-16T23:50:08.659Z,101162.47
2022-12-16T23:52:57.356Z,101151.78
2022-12-16T23:55:43.192Z,101158.91
2022-12-16T23:58:29.502Z,101162.47
